sensor_id;sensor_type;location;lat;lon;timestamp;pressure;altitude;pressure_sealevel;temperature;humidity
73398;BME280;63606;52.328;20.964;2022-10-24T00:02:16;100893.38;;;8.46;93.76
73398;BME280;63606;52.328;20.964;2022-10-24T00:04:41;100894.63;;;8.43;94.34
73398;BME280;63606;52.328;20.964;2022-10-24T00:07:07;100883.91;;;8.43;94.68
73398;BME280;63606;52.328;20.964;2022-10-24T00:09:34;100887.41;;;8.44;94.23
73398;BME280;63606;52.328;20.964;2022-10-24T00:12:01;100892.78;;;8.44;94.31
73398;BME280;63606;52.328;20.964;2022-10-24T00:14:27;100895.47;;;8.44;94.04
73398;BME280;63606;52.328;20.964;2022-10-24T00:16:53;100896.50;;;8.43;93.90
73398;BME280;63606;52.328;20.964;2022-10-24T00:19:19;100899.56;;;8.46;94.64
73398;BME280;63606;52.328;20.964;2022-10-24T00:21:44;100894.44;;;8.45;94.39
73398;BME280;63606;52.328;20.964;2022-10-24T00:24:10;100901.66;;;8.44;94.46
73398;BME280;63606;52.328;20.964;2022-10-24T00:26:36;100909.91;;;8.43;94.44
73398;BME280;63606;52.328;20.964;2022-10-24T00:29:02;100899.19;;;8.43;94.26
73398;BME280;63606;52.328;20.964;2022-10-24T00:31:28;100899.19;;;8.43;94.97
73398;BME280;63606;52.328;20.964;2022-10-24T00:33:54;100906.63;;;8.41;94.00
73398;BME280;63606;52.328;20.964;2022-10-24T00:36:22;100907.66;;;8.40;94.33
73398;BME280;63606;52.328;20.964;2022-10-24T00:38:48;100900.84;;;8.37;94.69
73398;BME280;63606;52.328;20.964;2022-10-24T00:41:18;100908.66;;;8.39;94.50
73398;BME280;63606;52.328;20.964;2022-10-24T00:43:44;100901.25;;;8.41;94.32
73398;BME280;63606;52.328;20.964;2022-10-24T00:46:10;100889.50;;;8.42;94.17
73398;BME280;63606;52.328;20.964;2022-10-24T00:48:45;100884.75;;;8.44;94.68
73398;BME280;63606;52.328;20.964;2022-10-24T00:51:22;100891.97;;;8.43;94.85
73398;BME280;63606;52.328;20.964;2022-10-24T00:54:05;100883.09;;;8.43;94.82
73398;BME280;63606;52.328;20.964;2022-10-24T00:57:02;100869.91;;;8.41;94.55
73398;BME280;63606;52.328;20.964;2022-10-24T00:59:29;100877.75;;;8.43;94.44
73398;BME280;63606;52.328;20.964;2022-10-24T01:01:55;100874.25;;;8.42;94.47
73398;BME280;63606;52.328;20.964;2022-10-24T01:04:21;100868.88;;;8.42;95.24
73398;BME280;63606;52.328;20.964;2022-10-24T01:12:38;100862.84;;;8.53;95.85
73398;BME280;63606;52.328;20.964;2022-10-24T01:15:22;100861.16;;;8.59;96.33
73398;BME280;63606;52.328;20.964;2022-10-24T01:18:31;100860.72;;;8.62;95.93
73398;BME280;63606;52.328;20.964;2022-10-24T01:34:48;100834.59;;;8.82;97.47
73398;BME280;63606;52.328;20.964;2022-10-24T01:37:38;100830.38;;;8.93;98.00
73398;BME280;63606;52.328;20.964;2022-10-24T01:40:10;100827.91;;;8.92;97.85
73398;BME280;63606;52.328;20.964;2022-10-24T01:42:38;100834.19;;;9.04;98.05
73398;BME280;63606;52.328;20.964;2022-10-24T01:45:07;100822.88;;;9.02;97.81
73398;BME280;63606;52.328;20.964;2022-10-24T01:47:39;100829.88;;;9.03;97.94
73398;BME280;63606;52.328;20.964;2022-10-24T01:50:10;100828.00;;;9.03;97.74
73398;BME280;63606;52.328;20.964;2022-10-24T01:52:40;100826.97;;;9.04;98.24
73398;BME280;63606;52.328;20.964;2022-10-24T01:55:06;100826.16;;;9.04;98.13
73398;BME280;63606;52.328;20.964;2022-10-24T01:57:33;100813.97;;;9.08;98.24
73398;BME280;63606;52.328;20.964;2022-10-24T01:59:59;100807.56;;;9.09;98.31
73398;BME280;63606;52.328;20.964;2022-10-24T02:02:42;100806.50;;;9.10;98.29
73398;BME280;63606;52.328;20.964;2022-10-24T02:05:21;100795.53;;;9.11;98.04
73398;BME280;63606;52.328;20.964;2022-10-24T02:07:54;100791.88;;;9.06;98.22
73398;BME280;63606;52.328;20.964;2022-10-24T02:10:30;100789.19;;;9.06;98.63
73398;BME280;63606;52.328;20.964;2022-10-24T02:13:03;100779.44;;;9.11;98.24
73398;BME280;63606;52.328;20.964;2022-10-24T02:15:33;100773.25;;;9.11;98.23
73398;BME280;63606;52.328;20.964;2022-10-24T02:18:01;100770.34;;;9.12;98.03
73398;BME280;63606;52.328;20.964;2022-10-24T02:20:37;100775.34;;;9.09;98.12
73398;BME280;63606;52.328;20.964;2022-10-24T02:23:43;100774.91;;;9.12;98.19
73398;BME280;63606;52.328;20.964;2022-10-24T02:26:23;100772.03;;;9.07;98.38
73398;BME280;63606;52.328;20.964;2022-10-24T02:28:52;100772.03;;;9.07;98.49
73398;BME280;63606;52.328;20.964;2022-10-24T02:31:24;100761.31;;;9.07;98.04
73398;BME280;63606;52.328;20.964;2022-10-24T02:33:52;100765.03;;;9.06;97.92
73398;BME280;63606;52.328;20.964;2022-10-24T02:36:24;100772.94;;;9.01;97.66
73398;BME280;63606;52.328;20.964;2022-10-24T02:38:52;100773.78;;;9.01;98.13
73398;BME280;63606;52.328;20.964;2022-10-24T02:41:24;100778.38;;;8.94;98.29
73398;BME280;63606;52.328;20.964;2022-10-24T02:43:51;100784.72;;;9.00;98.24
73398;BME280;63606;52.328;20.964;2022-10-24T02:46:19;100787.00;;;8.96;98.25
73398;BME280;63606;52.328;20.964;2022-10-24T02:48:50;100784.13;;;8.98;97.82
73398;BME280;63606;52.328;20.964;2022-10-24T02:51:19;100789.50;;;8.98;98.07
73398;BME280;63606;52.328;20.964;2022-10-24T02:53:46;100786.19;;;8.96;98.22
73398;BME280;63606;52.328;20.964;2022-10-24T02:56:11;100778.88;;;8.84;98.38
73398;BME280;63606;52.328;20.964;2022-10-24T02:58:37;100771.03;;;8.83;98.14
73398;BME280;63606;52.328;20.964;2022-10-24T03:01:03;100771.25;;;8.81;98.63
73398;BME280;63606;52.328;20.964;2022-10-24T03:03:28;100765.31;;;8.79;98.58
73398;BME280;63606;52.328;20.964;2022-10-24T03:05:54;100769.44;;;8.75;98.62
73398;BME280;63606;52.328;20.964;2022-10-24T03:08:19;100756.44;;;8.79;98.55
73398;BME280;63606;52.328;20.964;2022-10-24T03:10:45;100757.69;;;8.76;98.07
73398;BME280;63606;52.328;20.964;2022-10-24T03:13:11;100759.19;;;8.72;98.18
73398;BME280;63606;52.328;20.964;2022-10-24T03:15:36;100755.91;;;8.70;98.03
73398;BME280;63606;52.328;20.964;2022-10-24T03:18:02;100764.97;;;8.69;98.28
73398;BME280;63606;52.328;20.964;2022-10-24T03:20:27;100757.94;;;8.68;97.95
73398;BME280;63606;52.328;20.964;2022-10-24T03:22:53;100761.69;;;8.67;97.71
73398;BME280;63606;52.328;20.964;2022-10-24T03:25:18;100756.53;;;8.66;98.15
73398;BME280;63606;52.328;20.964;2022-10-24T03:27:44;100755.72;;;8.65;98.00
73398;BME280;63606;52.328;20.964;2022-10-24T03:30:10;100754.31;;;8.63;98.09
73398;BME280;63606;52.328;20.964;2022-10-24T03:32:35;100748.91;;;8.69;98.11
73398;BME280;63606;52.328;20.964;2022-10-24T03:35:01;100749.31;;;8.66;97.85
73398;BME280;63606;52.328;20.964;2022-10-24T03:37:27;100751.41;;;8.64;97.98
73398;BME280;63606;52.328;20.964;2022-10-24T03:39:53;100747.22;;;8.68;97.84
73398;BME280;63606;52.328;20.964;2022-10-24T03:42:18;100752.00;;;8.66;97.75
73398;BME280;63606;52.328;20.964;2022-10-24T03:44:44;100744.41;;;8.63;97.87
73398;BME280;63606;52.328;20.964;2022-10-24T03:47:09;100742.31;;;8.65;98.05
73398;BME280;63606;52.328;20.964;2022-10-24T03:49:35;100740.63;;;8.71;97.75
73398;BME280;63606;52.328;20.964;2022-10-24T03:52:00;100735.63;;;8.74;97.52
73398;BME280;63606;52.328;20.964;2022-10-24T03:54:26;100732.34;;;8.72;97.40
73398;BME280;63606;52.328;20.964;2022-10-24T03:56:52;100736.09;;;8.71;97.87
73398;BME280;63606;52.328;20.964;2022-10-24T03:59:17;100732.81;;;8.69;97.68
73398;BME280;63606;52.328;20.964;2022-10-24T04:01:43;100726.81;;;8.67;98.01
73398;BME280;63606;52.328;20.964;2022-10-24T04:04:08;100729.91;;;8.71;98.02
73398;BME280;63606;52.328;20.964;2022-10-24T04:06:34;100732.31;;;8.79;98.46
73398;BME280;63606;52.328;20.964;2022-10-24T04:09:00;100736.84;;;8.78;97.92
73398;BME280;63606;52.328;20.964;2022-10-24T04:11:26;100731.50;;;8.78;98.08
73398;BME280;63606;52.328;20.964;2022-10-24T04:13:51;100725.50;;;8.76;98.23
73398;BME280;63606;52.328;20.964;2022-10-24T04:16:18;100725.22;;;8.84;98.08
73398;BME280;63606;52.328;20.964;2022-10-24T04:18:45;100718.69;;;8.80;98.25
73398;BME280;63606;52.328;20.964;2022-10-24T04:21:11;100711.69;;;8.79;98.18
73398;BME280;63606;52.328;20.964;2022-10-24T04:23:36;100708.63;;;8.94;97.72
73398;BME280;63606;52.328;20.964;2022-10-24T04:26:09;100705.34;;;8.92;98.06
73398;BME280;63606;52.328;20.964;2022-10-24T04:28:35;100706.41;;;8.91;98.13
73398;BME280;63606;52.328;20.964;2022-10-24T04:31:00;100696.50;;;8.92;98.45
73398;BME280;63606;52.328;20.964;2022-10-24T04:33:26;100691.72;;;8.94;97.99
73398;BME280;63606;52.328;20.964;2022-10-24T04:35:51;100690.84;;;9.00;97.89
73398;BME280;63606;52.328;20.964;2022-10-24T04:38:18;100687.09;;;9.01;97.74
73398;BME280;63606;52.328;20.964;2022-10-24T04:40:51;100674.50;;;9.01;97.80
73398;BME280;63606;52.328;20.964;2022-10-24T04:43:18;100678.59;;;9.04;97.45
73398;BME280;63606;52.328;20.964;2022-10-24T04:45:45;100664.00;;;9.00;97.90
73398;BME280;63606;52.328;20.964;2022-10-24T04:48:10;100663.56;;;9.03;97.61
73398;BME280;63606;52.328;20.964;2022-10-24T04:50:38;100666.25;;;9.03;98.11
73398;BME280;63606;52.328;20.964;2022-10-24T04:53:04;100664.31;;;9.10;97.54
73398;BME280;63606;52.328;20.964;2022-10-24T04:55:29;100655.81;;;9.13;97.27
73398;BME280;63606;52.328;20.964;2022-10-24T04:57:55;100656.50;;;9.08;97.32
73398;BME280;63606;52.328;20.964;2022-10-24T05:00:21;100649.38;;;9.14;97.48
73398;BME280;63606;52.328;20.964;2022-10-24T05:02:46;100647.16;;;9.11;97.41
73398;BME280;63606;52.328;20.964;2022-10-24T05:05:12;100647.97;;;9.11;97.53
73398;BME280;63606;52.328;20.964;2022-10-24T05:07:37;100646.56;;;9.09;97.75
73398;BME280;63606;52.328;20.964;2022-10-24T05:10:04;100639.88;;;9.18;97.43
73398;BME280;63606;52.328;20.964;2022-10-24T05:12:30;100632.41;;;9.20;97.68
73398;BME280;63606;52.328;20.964;2022-10-24T05:14:55;100633.22;;;9.21;97.15
73398;BME280;63606;52.328;20.964;2022-10-24T05:17:21;100634.25;;;9.20;97.55
73398;BME280;63606;52.328;20.964;2022-10-24T05:19:48;100634.38;;;9.25;97.38
73398;BME280;63606;52.328;20.964;2022-10-24T05:22:14;100625.75;;;9.23;97.44
73398;BME280;63606;52.328;20.964;2022-10-24T05:24:39;100630.88;;;9.24;97.76
73398;BME280;63606;52.328;20.964;2022-10-24T05:27:05;100630.47;;;9.27;97.59
73398;BME280;63606;52.328;20.964;2022-10-24T05:29:31;100630.00;;;9.30;97.33
73398;BME280;63606;52.328;20.964;2022-10-24T05:31:56;100627.25;;;9.37;97.28
73398;BME280;63606;52.328;20.964;2022-10-24T05:34:22;100629.69;;;9.38;97.14
73398;BME280;63606;52.328;20.964;2022-10-24T05:36:47;100630.88;;;9.42;97.41
73398;BME280;63606;52.328;20.964;2022-10-24T05:39:13;100624.59;;;9.49;96.95
73398;BME280;63606;52.328;20.964;2022-10-24T05:41:38;100642.81;;;9.46;96.88
73398;BME280;63606;52.328;20.964;2022-10-24T05:44:04;100649.94;;;9.53;97.17
73398;BME280;63606;52.328;20.964;2022-10-24T05:46:29;100652.63;;;9.53;97.40
73398;BME280;63606;52.328;20.964;2022-10-24T05:48:55;100654.16;;;9.60;96.92
73398;BME280;63606;52.328;20.964;2022-10-24T05:51:20;100651.25;;;9.62;96.39
73398;BME280;63606;52.328;20.964;2022-10-24T05:53:47;100644.72;;;9.58;96.52
73398;BME280;63606;52.328;20.964;2022-10-24T05:56:12;100635.03;;;9.57;96.33
73398;BME280;63606;52.328;20.964;2022-10-24T05:58:38;100633.50;;;9.61;96.24
73398;BME280;63606;52.328;20.964;2022-10-24T06:01:04;100639.34;;;9.58;96.26
73398;BME280;63606;52.328;20.964;2022-10-24T06:03:29;100644.25;;;9.61;96.33
73398;BME280;63606;52.328;20.964;2022-10-24T06:05:55;100640.03;;;9.65;96.30
73398;BME280;63606;52.328;20.964;2022-10-24T06:08:20;100649.16;;;9.64;96.48
73398;BME280;63606;52.328;20.964;2022-10-24T06:10:48;100664.09;;;9.60;96.56
73398;BME280;63606;52.328;20.964;2022-10-24T06:13:15;100656.16;;;9.65;96.71
73398;BME280;63606;52.328;20.964;2022-10-24T06:15:42;100659.81;;;9.70;96.48
73398;BME280;63606;52.328;20.964;2022-10-24T06:18:08;100661.44;;;9.71;96.33
73398;BME280;63606;52.328;20.964;2022-10-24T06:20:34;100661.09;;;9.68;96.57
73398;BME280;63606;52.328;20.964;2022-10-24T06:22:59;100658.63;;;9.66;96.69
73398;BME280;63606;52.328;20.964;2022-10-24T06:25:25;100657.28;;;9.75;96.27
73398;BME280;63606;52.328;20.964;2022-10-24T06:27:50;100646.16;;;9.72;96.48
73398;BME280;63606;52.328;20.964;2022-10-24T06:30:16;100647.94;;;9.78;96.35
73398;BME280;63606;52.328;20.964;2022-10-24T06:32:42;100643.13;;;9.80;96.35
73398;BME280;63606;52.328;20.964;2022-10-24T06:35:08;100641.03;;;9.82;96.25
73398;BME280;63606;52.328;20.964;2022-10-24T06:37:37;100633.13;;;9.87;96.42
73398;BME280;63606;52.328;20.964;2022-10-24T06:40:02;100636.41;;;9.89;96.59
73398;BME280;63606;52.328;20.964;2022-10-24T06:42:28;100633.47;;;9.91;96.40
73398;BME280;63606;52.328;20.964;2022-10-24T06:44:54;100639.22;;;9.94;95.73
73398;BME280;63606;52.328;20.964;2022-10-24T06:47:19;100648.19;;;9.88;96.10
73398;BME280;63606;52.328;20.964;2022-10-24T06:49:45;100651.00;;;9.93;95.90
73398;BME280;63606;52.328;20.964;2022-10-24T06:52:11;100662.78;;;9.92;95.86
73398;BME280;63606;52.328;20.964;2022-10-24T06:54:36;100671.81;;;9.98;95.98
73398;BME280;63606;52.328;20.964;2022-10-24T06:57:03;100672.03;;;9.96;96.11
73398;BME280;63606;52.328;20.964;2022-10-24T06:59:29;100676.84;;;9.94;95.55
73398;BME280;63606;52.328;20.964;2022-10-24T07:01:54;100691.91;;;9.95;95.90
73398;BME280;63606;52.328;20.964;2022-10-24T07:04:20;100704.13;;;9.91;96.52
73398;BME280;63606;52.328;20.964;2022-10-24T07:06:46;100697.94;;;9.91;96.63
73398;BME280;63606;52.328;20.964;2022-10-24T07:09:13;100702.03;;;9.93;96.59
73398;BME280;63606;52.328;20.964;2022-10-24T07:11:39;100699.34;;;9.93;96.59
73398;BME280;63606;52.328;20.964;2022-10-24T07:14:04;100716.28;;;9.94;96.35
73398;BME280;63606;52.328;20.964;2022-10-24T07:16:30;100728.47;;;9.96;96.78
73398;BME280;63606;52.328;20.964;2022-10-24T07:18:56;100728.47;;;9.96;97.24
73398;BME280;63606;52.328;20.964;2022-10-24T07:21:24;100732.91;;;10.02;96.16
73398;BME280;63606;52.328;20.964;2022-10-24T07:23:51;100734.34;;;10.05;96.31
73398;BME280;63606;52.328;20.964;2022-10-24T07:26:17;100730.00;;;10.04;96.55
73398;BME280;63606;52.328;20.964;2022-10-24T07:28:45;100721.09;;;10.03;96.59
73398;BME280;63606;52.328;20.964;2022-10-24T07:31:15;100717.03;;;10.13;96.74
73398;BME280;63606;52.328;20.964;2022-10-24T07:33:41;100724.41;;;10.06;96.62
73398;BME280;63606;52.328;20.964;2022-10-24T07:36:07;100715.16;;;10.01;96.68
73398;BME280;63606;52.328;20.964;2022-10-24T07:38:33;100681.19;;;10.07;96.70
73398;BME280;63606;52.328;20.964;2022-10-24T07:41:04;100673.78;;;10.02;96.76
73398;BME280;63606;52.328;20.964;2022-10-24T07:43:30;100661.28;;;9.96;96.74
73398;BME280;63606;52.328;20.964;2022-10-24T07:45:56;100657.66;;;10.02;97.14
73398;BME280;63606;52.328;20.964;2022-10-24T07:48:21;100652.66;;;9.94;96.53
73398;BME280;63606;52.328;20.964;2022-10-24T07:50:48;100668.63;;;9.89;96.97
73398;BME280;63606;52.328;20.964;2022-10-24T07:53:14;100666.09;;;9.94;96.91
73398;BME280;63606;52.328;20.964;2022-10-24T07:55:41;100672.47;;;9.93;97.42
73398;BME280;63606;52.328;20.964;2022-10-24T07:58:08;100669.94;;;9.98;97.17
73398;BME280;63606;52.328;20.964;2022-10-24T08:00:34;100671.72;;;10.04;97.17
73398;BME280;63606;52.328;20.964;2022-10-24T08:03:01;100670.78;;;10.11;96.80
73398;BME280;63606;52.328;20.964;2022-10-24T08:05:27;100664.03;;;10.20;96.08
73398;BME280;63606;52.328;20.964;2022-10-24T08:07:53;100664.03;;;10.20;96.86
73398;BME280;63606;52.328;20.964;2022-10-24T08:10:18;100658.66;;;10.20;97.09
73398;BME280;63606;52.328;20.964;2022-10-24T08:12:44;100658.41;;;10.21;97.08
73398;BME280;63606;52.328;20.964;2022-10-24T08:15:10;100655.31;;;10.24;97.02
73398;BME280;63606;52.328;20.964;2022-10-24T08:17:36;100656.00;;;10.31;96.85
73398;BME280;63606;52.328;20.964;2022-10-24T08:20:06;100653.91;;;10.34;96.48
73398;BME280;63606;52.328;20.964;2022-10-24T08:22:33;100651.00;;;10.35;96.92
73398;BME280;63606;52.328;20.964;2022-10-24T08:24:59;100648.88;;;10.37;96.79
73398;BME280;63606;52.328;20.964;2022-10-24T08:27:26;100652.88;;;10.46;96.50
73398;BME280;63606;52.328;20.964;2022-10-24T08:29:51;100643.75;;;10.47;96.34
73398;BME280;63606;52.328;20.964;2022-10-24T08:32:17;100646.19;;;10.49;96.01
73398;BME280;63606;52.328;20.964;2022-10-24T08:34:42;100637.44;;;10.53;95.92
73398;BME280;63606;52.328;20.964;2022-10-24T08:37:08;100642.22;;;10.51;96.09
73398;BME280;63606;52.328;20.964;2022-10-24T08:39:33;100642.22;;;10.51;96.17
73398;BME280;63606;52.328;20.964;2022-10-24T08:42:04;100644.91;;;10.51;96.49
73398;BME280;63606;52.328;20.964;2022-10-24T08:44:41;100651.94;;;10.52;96.33
73398;BME280;63606;52.328;20.964;2022-10-24T08:50:22;100656.34;;;10.70;96.47
73398;BME280;63606;52.328;20.964;2022-10-24T08:53:04;100646.44;;;10.82;96.42
73398;BME280;63606;52.328;20.964;2022-10-24T08:58:04;100648.84;;;10.96;95.66
73398;BME280;63606;52.328;20.964;2022-10-24T09:00:36;100650.13;;;11.05;95.75
73398;BME280;63606;52.328;20.964;2022-10-24T09:03:17;100652.78;;;11.16;95.26
73398;BME280;63606;52.328;20.964;2022-10-24T09:05:48;100655.59;;;11.22;95.59
73398;BME280;63606;52.328;20.964;2022-10-24T09:14:10;100647.19;;;11.46;94.91
73398;BME280;63606;52.328;20.964;2022-10-24T09:16:37;100650.81;;;11.52;94.66
73398;BME280;63606;52.328;20.964;2022-10-24T09:19:05;100650.19;;;11.62;94.51
73398;BME280;63606;52.328;20.964;2022-10-24T09:21:31;100650.63;;;11.70;93.89
73398;BME280;63606;52.328;20.964;2022-10-24T09:23:56;100641.31;;;11.78;93.66
73398;BME280;63606;52.328;20.964;2022-10-24T09:26:26;100634.72;;;11.86;93.82
73398;BME280;63606;52.328;20.964;2022-10-24T09:28:53;100641.03;;;11.91;92.89
73398;BME280;63606;52.328;20.964;2022-10-24T09:31:22;100640.28;;;11.96;93.48
73398;BME280;63606;52.328;20.964;2022-10-24T09:33:50;100638.03;;;12.04;92.90
73398;BME280;63606;52.328;20.964;2022-10-24T09:36:21;100637.31;;;12.09;92.21
73398;BME280;63606;52.328;20.964;2022-10-24T09:38:49;100650.28;;;12.12;92.70
73398;BME280;63606;52.328;20.964;2022-10-24T09:41:23;100635.75;;;12.13;92.63
73398;BME280;63606;52.328;20.964;2022-10-24T09:43:51;100631.31;;;12.24;92.42
73398;BME280;63606;52.328;20.964;2022-10-24T09:46:27;100633.78;;;12.25;92.04
73398;BME280;63606;52.328;20.964;2022-10-24T09:48:57;100625.13;;;12.23;92.55
73398;BME280;63606;52.328;20.964;2022-10-24T09:51:38;100631.66;;;12.27;92.43
73398;BME280;63606;52.328;20.964;2022-10-24T09:54:21;100619.88;;;12.33;92.81
73398;BME280;63606;52.328;20.964;2022-10-24T09:59:40;100633.25;;;12.62;92.00
73398;BME280;63606;52.328;20.964;2022-10-24T10:04:39;100633.38;;;12.72;90.16
73398;BME280;63606;52.328;20.964;2022-10-24T10:07:17;100635.66;;;12.80;90.48
73398;BME280;63606;52.328;20.964;2022-10-24T10:09:53;100620.94;;;12.88;89.88
73398;BME280;63606;52.328;20.964;2022-10-24T10:12:36;100622.38;;;12.96;90.33
73398;BME280;63606;52.328;20.964;2022-10-24T10:15:21;100612.22;;;13.03;90.15
73398;BME280;63606;52.328;20.964;2022-10-24T10:17:49;100619.03;;;13.10;88.82
73398;BME280;63606;52.328;20.964;2022-10-24T10:20:42;100621.00;;;13.15;89.59
73398;BME280;63606;52.328;20.964;2022-10-24T10:23:28;100615.19;;;13.23;87.97
73398;BME280;63606;52.328;20.964;2022-10-24T10:31:19;100619.56;;;13.29;89.42
73398;BME280;63606;52.328;20.964;2022-10-24T10:34:11;100612.16;;;13.41;88.72
73398;BME280;63606;52.328;20.964;2022-10-24T10:39:34;100617.91;;;13.77;88.16
73398;BME280;63606;52.328;20.964;2022-10-24T10:42:33;100615.38;;;13.97;88.05
73398;BME280;63606;52.328;20.964;2022-10-24T10:45:34;100608.25;;;14.18;86.71
73398;BME280;63606;52.328;20.964;2022-10-24T10:48:16;100614.03;;;14.32;84.77
73398;BME280;63606;52.328;20.964;2022-10-24T10:51:06;100613.56;;;14.40;84.85
73398;BME280;63606;52.328;20.964;2022-10-24T10:53:39;100607.59;;;14.38;85.31
73398;BME280;63606;52.328;20.964;2022-10-24T11:07:15;100620.19;;;14.22;85.91
73398;BME280;63606;52.328;20.964;2022-10-24T11:09:51;100614.25;;;14.25;85.80
73398;BME280;63606;52.328;20.964;2022-10-24T11:12:34;100616.69;;;14.27;85.96
73398;BME280;63606;52.328;20.964;2022-10-24T11:17:37;100620.03;;;14.39;86.03
73398;BME280;63606;52.328;20.964;2022-10-24T11:20:17;100618.69;;;14.42;86.73
73398;BME280;63606;52.328;20.964;2022-10-24T11:22:51;100619.72;;;14.36;84.74
73398;BME280;63606;52.328;20.964;2022-10-24T11:27:49;100618.00;;;14.51;85.62
73398;BME280;63606;52.328;20.964;2022-10-24T11:30:19;100618.28;;;14.55;84.71
73398;BME280;63606;52.328;20.964;2022-10-24T11:32:52;100615.22;;;14.46;84.79
73398;BME280;63606;52.328;20.964;2022-10-24T11:35:30;100613.59;;;14.45;85.54
73398;BME280;63606;52.328;20.964;2022-10-24T11:38:22;100606.34;;;14.51;86.95
73398;BME280;63606;52.328;20.964;2022-10-24T11:40:53;100599.38;;;14.60;87.11
73398;BME280;63606;52.328;20.964;2022-10-24T11:43:32;100594.53;;;14.67;84.71
73398;BME280;63606;52.328;20.964;2022-10-24T11:46:03;100594.81;;;14.76;85.51
73398;BME280;63606;52.328;20.964;2022-10-24T11:51:18;100601.84;;;14.72;85.31
73398;BME280;63606;52.328;20.964;2022-10-24T11:57:16;100593.81;;;14.87;85.11
73398;BME280;63606;52.328;20.964;2022-10-24T11:59:20;100593.31;;;15.00;85.99
73398;BME280;63606;52.328;20.964;2022-10-24T12:19:17;100571.00;;;16.27;82.98
73398;BME280;63606;52.328;20.964;2022-10-24T12:21:48;100568.53;;;16.30;81.81
73398;BME280;63606;52.328;20.964;2022-10-24T12:24:35;100563.41;;;16.34;81.58
73398;BME280;63606;52.328;20.964;2022-10-24T12:27:32;100563.66;;;16.38;79.92
73398;BME280;63606;52.328;20.964;2022-10-24T12:32:48;100557.38;;;16.52;78.79
73398;BME280;63606;52.328;20.964;2022-10-24T12:38:01;100541.88;;;16.68;79.69
73398;BME280;63606;52.328;20.964;2022-10-24T12:49:10;100535.94;;;17.60;74.19
73398;BME280;63606;52.328;20.964;2022-10-24T12:51:40;100541.31;;;17.70;75.04
73398;BME280;63606;52.328;20.964;2022-10-24T12:59:19;100532.56;;;17.73;74.42
73398;BME280;63606;52.328;20.964;2022-10-24T13:01:47;100527.41;;;18.06;75.08
73398;BME280;63606;52.328;20.964;2022-10-24T13:07:39;100528.59;;;18.71;69.95
73398;BME280;63606;52.328;20.964;2022-10-24T13:10:16;100524.25;;;18.94;70.31
73398;BME280;63606;52.328;20.964;2022-10-24T13:20:49;100528.50;;;20.22;69.55
73398;BME280;63606;52.328;20.964;2022-10-24T13:23:31;100527.69;;;20.21;67.71
73398;BME280;63606;52.328;20.964;2022-10-24T13:25:58;100532.59;;;19.92;65.79
73398;BME280;63606;52.328;20.964;2022-10-24T13:36:17;100527.28;;;19.11;67.65
73398;BME280;63606;52.328;20.964;2022-10-24T13:41:33;100529.78;;;18.65;70.90
73398;BME280;63606;52.328;20.964;2022-10-24T13:44:20;100523.75;;;18.44;69.82
73398;BME280;63606;52.328;20.964;2022-10-24T13:46:54;100527.72;;;18.28;72.12
73398;BME280;63606;52.328;20.964;2022-10-24T13:49:35;100517.97;;;18.22;73.94
73398;BME280;63606;52.328;20.964;2022-10-24T13:52:24;100521.91;;;18.11;72.06
73398;BME280;63606;52.328;20.964;2022-10-24T13:54:57;100521.72;;;18.02;74.58
73398;BME280;63606;52.328;20.964;2022-10-24T13:57:28;100524.28;;;17.88;72.50
73398;BME280;63606;52.328;20.964;2022-10-24T13:59:57;100528.25;;;17.72;71.94
73398;BME280;63606;52.328;20.964;2022-10-24T14:02:26;100523.44;;;17.59;75.73
73398;BME280;63606;52.328;20.964;2022-10-24T14:04:53;100519.13;;;17.53;73.08
73398;BME280;63606;52.328;20.964;2022-10-24T14:07:22;100528.16;;;17.43;76.96
73398;BME280;63606;52.328;20.964;2022-10-24T14:09:57;100526.09;;;17.30;76.36
73398;BME280;63606;52.328;20.964;2022-10-24T14:12:25;100524.25;;;17.20;72.98
73398;BME280;63606;52.328;20.964;2022-10-24T14:14:52;100517.78;;;17.11;74.66
73398;BME280;63606;52.328;20.964;2022-10-24T14:17:23;100520.03;;;16.99;75.50
73398;BME280;63606;52.328;20.964;2022-10-24T14:19:59;100514.06;;;16.92;79.15
73398;BME280;63606;52.328;20.964;2022-10-24T14:22:28;100523.91;;;16.82;81.05
73398;BME280;63606;52.328;20.964;2022-10-24T14:24:55;100522.84;;;16.73;80.79
73398;BME280;63606;52.328;20.964;2022-10-24T14:27:20;100520.66;;;16.65;80.41
73398;BME280;63606;52.328;20.964;2022-10-24T14:29:55;100523.44;;;16.55;79.15
73398;BME280;63606;52.328;20.964;2022-10-24T14:32:23;100534.56;;;16.48;80.49
73398;BME280;63606;52.328;20.964;2022-10-24T14:34:49;100535.41;;;16.44;80.82
73398;BME280;63606;52.328;20.964;2022-10-24T14:37:26;100529.44;;;16.37;82.62
73398;BME280;63606;52.328;20.964;2022-10-24T14:39:53;100528.38;;;16.27;80.40
73398;BME280;63606;52.328;20.964;2022-10-24T14:42:20;100531.38;;;16.21;80.54
73398;BME280;63606;52.328;20.964;2022-10-24T14:44:46;100529.50;;;16.11;82.84
73398;BME280;63606;52.328;20.964;2022-10-24T14:49:48;100541.47;;;15.90;83.31
73398;BME280;63606;52.328;20.964;2022-10-24T14:57:37;100535.50;;;15.72;83.27
73398;BME280;63606;52.328;20.964;2022-10-24T15:00:06;100537.16;;;15.63;83.81
73398;BME280;63606;52.328;20.964;2022-10-24T15:02:38;100538.75;;;15.54;84.76
73398;BME280;63606;52.328;20.964;2022-10-24T15:08:33;100537.63;;;15.35;85.53
73398;BME280;63606;52.328;20.964;2022-10-24T15:10:38;100541.94;;;15.26;85.42
73398;BME280;63606;52.328;20.964;2022-10-24T15:13:16;100539.22;;;15.15;85.98
73398;BME280;63606;52.328;20.964;2022-10-24T15:15:53;100550.84;;;15.06;85.86